Time;durP1;ratioP1;P1;durP2;ratioP2;P2;SDS_P1;SDS_P2;PMS_P1;PMS_P2;Temp;Humidity;BMP_temperature;BMP_pressure;BME280_temperature;BME280_humidity;BME280_pressure;Samples;Min_cycle;Max_cycle;Signal;HPM_P1;HPM_P2
2022/03/03 00:00:05;;;;;;;9.27;6.53;;;;;;;1.84;84.47;99377.18;1741026;80;21370;-56
2022/03/03 00:02:34;;;;;;;9.67;6.27;;;;;;;1.90;84.49;99372.19;1745275;80;21416;-57
2022/03/03 00:05:01;;;;;;;10.57;6.07;;;;;;;1.94;84.51;99372.57;1744448;80;20978;-58
2022/03/03 00:07:28;;;;;;;7.73;5.10;;;;;;;1.94;84.24;99365.94;1675519;82;21066;-55
2022/03/03 00:09:54;;;;;;;7.67;5.37;;;;;;;1.93;84.23;99377.91;1741333;80;21424;-55
2022/03/03 00:12:21;;;;;;;10.20;5.73;;;;;;;1.88;84.23;99364.70;1741761;80;21073;-57
2022/03/03 00:14:51;;;;;;;8.03;6.07;;;;;;;1.86;84.26;99366.54;1740367;80;22971;-57
2022/03/03 00:17:18;;;;;;;7.10;5.13;;;;;;;1.82;84.18;99364.38;1732391;80;21070;-57
2022/03/03 00:19:45;;;;;;;5.57;3.77;;;;;;;1.82;84.29;99363.50;1723323;81;21018;-58
2022/03/03 00:22:12;;;;;;;6.90;4.40;;;;;;;1.80;84.31;99360.87;1722764;81;20999;-57
2022/03/03 00:24:39;;;;;;;5.47;4.37;;;;;;;1.80;84.35;99358.67;1723386;81;21109;-58
2022/03/03 00:27:06;;;;;;;7.60;5.37;;;;;;;1.81;84.42;99362.63;1723997;81;21144;-57
2022/03/03 00:29:33;;;;;;;7.27;5.50;;;;;;;1.84;84.35;99364.36;1727231;81;21385;-57
2022/03/03 00:32:00;;;;;;;6.90;4.67;;;;;;;1.82;84.24;99354.22;1725435;81;21357;-56
2022/03/03 00:34:27;;;;;;;8.53;5.93;;;;;;;1.80;84.26;99360.00;1724685;81;21791;-57
2022/03/03 00:36:54;;;;;;;7.47;5.93;;;;;;;1.75;84.23;99355.25;1725091;81;21081;-57
2022/03/03 00:39:22;;;;;;;9.30;5.73;;;;;;;1.69;84.34;99351.39;1721069;81;21711;-55
2022/03/03 00:41:49;;;;;;;8.90;5.93;;;;;;;1.68;84.45;99357.14;1681710;83;21098;-56
2022/03/03 00:44:16;;;;;;;10.43;5.53;;;;;;;1.67;84.43;99348.77;1724403;81;21313;-56
2022/03/03 00:46:42;;;;;;;8.93;5.07;;;;;;;1.67;84.57;99351.86;1722903;81;21423;-56
2022/03/03 00:49:09;;;;;;;10.13;6.27;;;;;;;1.68;84.66;99348.31;1723066;81;20998;-56
2022/03/03 00:51:36;;;;;;;8.13;5.50;;;;;;;1.70;84.65;99346.03;1723017;80;22178;-56
2022/03/03 00:54:03;;;;;;;10.23;5.67;;;;;;;1.70;84.75;99342.05;1725073;81;21359;-56
2022/03/03 00:56:29;;;;;;;9.90;6.30;;;;;;;1.74;84.72;99340.23;1726109;81;21410;-56
2022/03/03 00:58:56;;;;;;;9.63;5.87;;;;;;;1.76;84.75;99342.41;1725629;81;20897;-56
2022/03/03 01:01:22;;;;;;;12.00;7.53;;;;;;;1.78;84.75;99333.97;1724333;81;20970;-56
2022/03/03 01:03:50;;;;;;;14.20;7.97;;;;;;;1.76;84.65;99337.09;1721779;81;21165;-56
2022/03/03 01:06:17;;;;;;;14.53;8.03;;;;;;;1.72;84.66;99331.41;1724371;81;20974;-55
2022/03/03 01:08:44;;;;;;;11.13;7.40;;;;;;;1.69;84.77;99327.52;1720540;81;20912;-56
2022/03/03 01:11:10;;;;;;;11.33;7.03;;;;;;;1.67;84.77;99326.66;1723252;81;21366;-57
2022/03/03 01:13:37;;;;;;;10.53;7.03;;;;;;;1.65;84.78;99333.77;1655930;85;20924;-56
2022/03/03 01:16:06;;;;;;;11.73;7.17;;;;;;;1.62;84.87;99328.51;1724452;82;21493;-57
2022/03/03 01:18:33;;;;;;;11.70;7.57;;;;;;;1.61;84.96;99331.64;1741360;80;20972;-56
2022/03/03 01:21:01;;;;;;;10.17;6.60;;;;;;;1.62;84.99;99333.81;1745580;80;20879;-56
2022/03/03 01:23:28;;;;;;;12.37;7.57;;;;;;;1.62;85.12;99329.38;1746119;80;20934;-56
2022/03/03 01:25:55;;;;;;;15.07;6.83;;;;;;;1.64;85.12;99333.34;1746112;80;20927;-56
2022/03/03 01:28:21;;;;;;;10.83;7.33;;;;;;;1.64;85.18;99324.93;1745316;80;22328;-56
2022/03/03 01:30:48;;;;;;;14.40;8.93;;;;;;;1.63;85.13;99332.91;1746536;80;20941;-55
2022/03/03 01:33:15;;;;;;;13.77;7.93;;;;;;;1.60;85.20;99331.66;1746710;80;20932;-55
2022/03/03 01:35:43;;;;;;;12.37;7.77;;;;;;;1.57;85.21;99335.23;1746061;80;21723;-55
2022/03/03 01:38:10;;;;;;;12.30;7.10;;;;;;;1.56;85.21;99328.63;1745324;80;21248;-56
2022/03/03 01:40:37;;;;;;;11.57;6.50;;;;;;;1.56;85.26;99329.95;1746178;80;21106;-56
2022/03/03 01:43:04;;;;;;;9.67;6.10;;;;;;;1.57;85.40;99329.94;1745347;80;21009;-57
2022/03/03 01:45:31;;;;;;;12.07;7.20;;;;;;;1.59;85.47;99324.16;1744937;80;20883;-61
2022/03/03 01:47:58;;;;;;;14.93;7.77;;;;;;;1.63;85.48;99316.99;1744311;80;21582;-56
2022/03/03 01:50:25;;;;;;;11.73;6.97;;;;;;;1.66;85.42;99318.27;1742047;80;21105;-56
2022/03/03 01:52:51;;;;;;;12.03;7.20;;;;;;;1.65;85.38;99316.52;1742741;80;21051;-57
2022/03/03 01:55:18;;;;;;;12.97;7.60;;;;;;;1.68;85.48;99317.80;1741675;80;21661;-57
2022/03/03 01:57:51;;;;;;;17.13;10.23;;;;;;;1.70;85.48;99318.17;1739122;80;21084;-55
2022/03/03 02:00:18;;;;;;;13.43;8.30;;;;;;;1.71;85.39;99313.73;1741928;80;20895;-57
2022/03/03 02:02:46;;;;;;;14.00;7.97;;;;;;;1.69;85.32;99311.59;1746003;80;20879;-56
2022/03/03 02:05:13;;;;;;;14.27;8.13;;;;;;;1.62;85.23;99310.81;1741292;80;21869;-57
2022/03/03 02:07:42;;;;;;;12.37;6.70;;;;;;;1.57;85.21;99314.47;1742095;80;21449;-56
2022/03/03 02:10:09;;;;;;;12.53;7.23;;;;;;;1.50;85.29;99309.29;1741854;80;21085;-56
2022/03/03 02:12:36;;;;;;;13.23;6.43;;;;;;;1.48;85.43;99312.41;1744753;80;21057;-56
2022/03/03 02:15:03;;;;;;;12.93;6.97;;;;;;;1.48;85.53;99311.09;1739005;80;21096;-56
2022/03/03 02:17:30;;;;;;;11.47;6.97;;;;;;;1.50;85.67;99304.44;1737138;80;21468;-56
2022/03/03 02:19:57;;;;;;;12.07;7.73;;;;;;;1.55;85.78;99310.96;1721292;81;21090;-56
2022/03/03 02:22:24;;;;;;;12.97;7.17;;;;;;;1.55;85.66;99305.20;1724445;81;21525;-56
2022/03/03 02:24:50;;;;;;;11.87;7.67;;;;;;;1.55;85.64;99304.33;1723312;81;21446;-55
2022/03/03 02:27:17;;;;;;;11.30;7.57;;;;;;;1.54;85.72;99295.50;1723770;81;21125;-56
2022/03/03 02:29:44;;;;;;;14.27;8.07;;;;;;;1.53;85.69;99295.55;1652997;85;21163;-56
2022/03/03 02:32:11;;;;;;;17.40;9.47;;;;;;;1.50;85.79;99293.38;1654969;85;20880;-56
2022/03/03 02:34:37;;;;;;;13.10;7.97;;;;;;;1.48;85.83;99289.87;1725186;81;21050;-56
2022/03/03 02:37:05;;;;;;;14.03;7.70;;;;;;;1.46;85.79;99290.34;1718536;81;21051;-55
2022/03/03 02:39:32;;;;;;;12.73;6.87;;;;;;;1.43;85.79;99293.08;1723810;81;21027;-56
2022/03/03 02:41:58;;;;;;;10.27;7.20;;;;;;;1.41;85.84;99288.24;1727174;81;21036;-56
2022/03/03 02:44:25;;;;;;;10.47;6.53;;;;;;;1.42;86.03;99286.47;1681588;83;20973;-56
2022/03/03 02:46:52;;;;;;;13.40;7.57;;;;;;;1.43;86.09;99281.14;1723457;81;21775;-55
2022/03/03 02:49:19;;;;;;;12.77;7.63;;;;;;;1.45;86.07;99282.41;1723888;81;21043;-53
2022/03/03 02:51:45;;;;;;;12.30;7.13;;;;;;;1.45;86.05;99277.10;1724831;81;21670;-57
2022/03/03 02:54:12;;;;;;;11.10;6.20;;;;;;;1.46;86.08;99273.10;1723864;81;21793;-56
2022/03/03 02:59:25;;;;;;;10.87;6.10;;;;;;;1.49;86.05;99262.45;1723102;81;21027;-56
2022/03/03 03:01:52;;;;;;;10.93;7.17;;;;;;;1.50;86.10;99264.64;1725241;81;21050;-57
2022/03/03 03:04:19;;;;;;;15.27;7.57;;;;;;;1.50;86.03;99266.85;1723449;81;21129;-55
2022/03/03 03:06:46;;;;;;;12.00;7.80;;;;;;;1.47;86.01;99258.06;1677677;83;21961;-56
2022/03/03 03:09:13;;;;;;;11.80;7.27;;;;;;;1.45;85.93;99266.50;1722782;81;21089;-57
2022/03/03 03:11:40;;;;;;;8.57;6.37;;;;;;;1.41;85.95;99260.39;1724062;81;21536;-56
2022/03/03 03:14:07;;;;;;;8.17;5.63;;;;;;;1.40;86.02;99255.11;1726596;81;20875;-55
2022/03/03 03:16:34;;;;;;;10.37;6.30;;;;;;;1.36;86.02;99250.79;1681599;85;21094;-56
2022/03/03 03:19:01;;;;;;;10.43;6.30;;;;;;;1.35;86.09;99247.27;1690287;82;22102;-56
2022/03/03 03:21:28;;;;;;;10.90;5.80;;;;;;;1.35;86.19;99247.72;1710886;82;21047;-56
2022/03/03 03:23:55;;;;;;;9.83;5.50;;;;;;;1.36;86.29;99251.63;1709998;82;21423;-56
2022/03/03 03:26:22;;;;;;;9.27;6.17;;;;;;;1.40;86.39;99242.73;1685235;83;21109;-56
2022/03/03 03:28:48;;;;;;;10.57;6.40;;;;;;;1.40;86.26;99237.43;1684182;83;21263;-56
2022/03/03 03:31:15;;;;;;;10.73;6.60;;;;;;;1.39;86.21;99238.78;1685590;83;21849;-56
2022/03/03 03:33:42;;;;;;;11.73;7.70;;;;;;;1.38;86.29;99243.20;1685016;83;21049;-56
2022/03/03 03:36:09;;;;;;;12.93;7.33;;;;;;;1.39;86.32;99236.13;1685335;83;21571;-56
2022/03/03 03:38:35;;;;;;;11.10;5.83;;;;;;;1.40;86.28;99232.13;1683906;83;21526;-56
2022/03/03 03:41:02;;;;;;;12.30;6.90;;;;;;;1.44;86.31;99231.63;1684875;83;21117;-56
2022/03/03 03:43:29;;;;;;;12.97;6.40;;;;;;;1.43;86.23;99228.09;1684198;83;22374;-57
2022/03/03 03:45:56;;;;;;;12.33;5.53;;;;;;;1.46;86.32;99226.69;1685768;83;21022;-55
2022/03/03 03:48:23;;;;;;;10.87;5.47;;;;;;;1.46;86.14;99224.03;1685817;83;21088;-57
2022/03/03 03:50:50;;;;;;;11.73;6.40;;;;;;;1.46;86.17;99222.71;1680709;83;21086;-56
2022/03/03 03:53:17;;;;;;;8.73;6.00;;;;;;;1.47;86.20;99224.46;1674821;83;21041;-56
2022/03/03 03:55:43;;;;;;;12.13;6.23;;;;;;;1.45;86.23;99218.31;1684769;83;21793;-56
2022/03/03 03:58:10;;;;;;;12.07;6.63;;;;;;;1.47;86.28;99212.53;1684311;83;21049;-56
2022/03/03 04:00:37;;;;;;;9.27;6.17;;;;;;;1.45;86.15;99218.31;1679763;83;21058;-56
2022/03/03 04:03:03;;;;;;;15.17;7.90;;;;;;;1.43;86.12;99214.84;1685224;84;21038;-55
2022/03/03 04:05:30;;;;;;;14.30;7.10;;;;;;;1.39;86.02;99205.18;1679695;83;21073;-55
2022/03/03 04:07:57;;;;;;;10.77;6.07;;;;;;;1.36;86.08;99202.58;1684387;84;21152;-56
2022/03/03 04:10:25;;;;;;;11.33;6.73;;;;;;;1.34;86.24;99207.06;1677783;83;21440;-56
2022/03/03 04:12:52;;;;;;;9.67;5.53;;;;;;;1.39;86.45;99201.20;1684873;83;21044;-56
2022/03/03 04:15:19;;;;;;;7.30;4.67;;;;;;;1.41;86.37;99200.73;1685238;83;21129;-56
2022/03/03 04:17:45;;;;;;;8.40;5.00;;;;;;;1.39;86.19;99201.20;1685227;83;21125;-56
2022/03/03 04:20:12;;;;;;;10.63;5.73;;;;;;;1.37;86.38;99203.00;1687069;82;21833;-57
2022/03/03 04:22:39;;;;;;;9.80;6.40;;;;;;;1.38;86.35;99205.20;1722877;81;21047;-56
2022/03/03 04:25:09;;;;;;;9.60;6.00;;;;;;;1.33;86.22;99205.31;1722121;81;21062;-56
2022/03/03 04:27:37;;;;;;;9.77;5.83;;;;;;;1.30;86.25;99198.73;1724164;81;20947;-57
2022/03/03 04:30:06;;;;;;;10.20;4.80;;;;;;;1.29;86.30;99200.08;1724810;81;21488;-55
2022/03/03 04:32:33;;;;;;;10.53;5.83;;;;;;;1.29;86.39;99197.42;1723162;81;21115;-55
2022/03/03 04:34:59;;;;;;;9.27;4.60;;;;;;;1.31;86.39;99203.58;1725142;81;20860;-56
2022/03/03 04:37:26;;;;;;;7.03;4.37;;;;;;;1.32;86.44;99204.01;1722057;81;21452;-55
2022/03/03 04:39:53;;;;;;;10.67;5.47;;;;;;;1.34;86.44;99199.11;1682202;84;20907;-56
2022/03/03 04:42:19;;;;;;;11.27;5.70;;;;;;;1.37;86.46;99203.45;1680428;83;20999;-57
2022/03/03 04:44:46;;;;;;;9.17;5.87;;;;;;;1.37;86.42;99203.00;1722945;81;21542;-57
2022/03/03 04:47:13;;;;;;;10.10;5.83;;;;;;;1.36;86.35;99201.73;1724574;81;21640;-57
2022/03/03 04:49:39;;;;;;;9.80;5.50;;;;;;;1.36;86.45;99193.78;1724639;81;21030;-58
2022/03/03 04:52:06;;;;;;;11.43;6.03;;;;;;;1.35;86.38;99198.66;1719607;81;21059;-56
2022/03/03 04:54:33;;;;;;;10.17;5.30;;;;;;;1.33;86.31;99203.98;1719821;81;21073;-55
2022/03/03 04:57:00;;;;;;;8.03;5.43;;;;;;;1.31;86.34;99196.95;1722143;81;21774;-55
2022/03/03 04:59:26;;;;;;;10.80;5.23;;;;;;;1.32;86.43;99200.03;1721487;81;21090;-59
2022/03/03 05:01:53;;;;;;;6.47;3.67;;;;;;;1.33;86.57;99189.40;1722043;81;21534;-57
2022/03/03 05:04:20;;;;;;;6.70;4.03;;;;;;;1.36;86.58;99191.13;1722805;81;21087;-57
2022/03/03 05:06:47;;;;;;;7.27;4.53;;;;;;;1.40;86.67;99186.16;1722184;81;21058;-57
2022/03/03 05:09:14;;;;;;;7.37;4.23;;;;;;;1.44;86.46;99186.54;1678574;83;22989;-58
2022/03/03 05:11:41;;;;;;;7.30;4.20;;;;;;;1.44;86.35;99187.86;1720928;81;21534;-57
2022/03/03 05:14:08;;;;;;;7.83;4.43;;;;;;;1.43;86.33;99190.97;1724475;81;20959;-57
2022/03/03 05:16:35;;;;;;;5.10;3.70;;;;;;;1.41;86.27;99196.75;1724889;81;20977;-57
2022/03/03 05:19:02;;;;;;;5.93;3.07;;;;;;;1.38;86.21;99188.84;1722822;81;20943;-57
2022/03/03 05:21:31;;;;;;;6.50;3.50;;;;;;;1.38;86.25;99194.59;1720227;82;22235;-58
2022/03/03 05:24:00;;;;;;;5.73;2.83;;;;;;;1.38;86.28;99183.98;1718736;82;21026;-56
2022/03/03 05:26:27;;;;;;;5.17;3.37;;;;;;;1.38;86.27;99192.82;1687809;84;21084;-56
2022/03/03 05:28:54;;;;;;;4.57;2.53;;;;;;;1.39;86.29;99183.09;1720203;82;21022;-56
2022/03/03 05:31:21;;;;;;;4.50;2.83;;;;;;;1.43;86.29;99186.98;1717351;83;21073;-57
2022/03/03 05:33:47;;;;;;;4.47;2.67;;;;;;;1.43;86.10;99186.98;1720504;82;21140;-57
2022/03/03 05:36:14;;;;;;;4.87;3.20;;;;;;;1.40;85.98;99190.14;1717909;82;21045;-56
2022/03/03 05:38:41;;;;;;;5.63;2.77;;;;;;;1.35;86.08;99184.07;1719006;82;21068;-56
2022/03/03 05:41:08;;;;;;;7.60;4.63;;;;;;;1.34;86.16;99184.97;1719809;82;21041;-57
2022/03/03 05:43:35;;;;;;;5.07;3.00;;;;;;;1.33;86.21;99181.45;1720080;82;21871;-57
2022/03/03 05:46:02;;;;;;;5.73;3.70;;;;;;;1.33;86.16;99184.09;1718497;81;21128;-56
2022/03/03 05:48:29;;;;;;;5.33;3.07;;;;;;;1.32;86.16;99186.33;1718621;82;21113;-57
2022/03/03 05:50:56;;;;;;;6.20;3.90;;;;;;;1.30;86.18;99193.43;1719748;82;21952;-56
2022/03/03 05:53:23;;;;;;;6.10;2.50;;;;;;;1.31;86.29;99192.53;1719260;81;21519;-57
2022/03/03 05:55:53;;;;;;;3.47;2.23;;;;;;;1.31;86.19;99188.55;1718353;81;21089;-56
2022/03/03 05:58:23;;;;;;;5.37;2.60;;;;;;;1.33;86.34;99182.77;1720547;82;21111;-56
2022/03/03 06:00:54;;;;;;;4.40;2.33;;;;;;;1.38;86.45;99185.31;1719470;82;21144;-57
2022/03/03 06:03:22;;;;;;;4.27;2.90;;;;;;;1.41;86.43;99178.64;1720789;81;22253;-57
2022/03/03 06:05:51;;;;;;;3.37;2.07;;;;;;;1.40;86.19;99173.78;1722778;81;21086;-57
2022/03/03 06:08:29;;;;;;;3.63;2.50;;;;;;;1.37;86.02;99177.81;1720957;81;21131;-57
2022/03/03 06:10:55;;;;;;;3.60;2.00;;;;;;;1.37;86.11;99186.22;1719350;81;20982;-57
2022/03/03 06:13:30;;;;;;;3.53;2.00;;;;;;;1.37;86.07;99177.81;1718166;81;21026;-57
2022/03/03 06:15:56;;;;;;;2.70;1.90;;;;;;;1.37;86.11;99176.48;1721431;81;28084;-57
2022/03/03 06:18:26;;;;;;;2.57;1.73;;;;;;;1.41;86.15;99174.20;1723421;81;20942;-57
2022/03/03 06:20:53;;;;;;;3.30;2.33;;;;;;;1.46;86.15;99177.63;1722627;81;21414;-57
2022/03/03 06:23:20;;;;;;;3.53;1.83;;;;;;;1.50;86.16;99177.13;1721301;81;21114;-57
2022/03/03 06:26:04;;;;;;;4.97;3.20;;;;;;;1.55;86.17;99172.58;1720702;81;21631;-56
2022/03/03 06:28:31;;;;;;;3.50;2.43;;;;;;;1.57;86.02;99172.55;1722215;81;21082;-57
2022/03/03 06:30:57;;;;;;;3.10;2.53;;;;;;;1.58;85.92;99171.65;1722799;81;21082;-58
2022/03/03 06:33:25;;;;;;;4.07;2.70;;;;;;;1.58;85.78;99170.33;1722538;81;21070;-57
2022/03/03 06:35:52;;;;;;;5.07;2.87;;;;;;;1.57;85.73;99163.27;1718480;81;21860;-57
2022/03/03 06:38:19;;;;;;;5.17;2.70;;;;;;;1.60;85.84;99163.22;1723731;81;21082;-57
2022/03/03 06:40:45;;;;;;;3.37;2.07;;;;;;;1.62;85.70;99164.91;1722330;81;21097;-58
2022/03/03 06:43:12;;;;;;;2.67;2.13;;;;;;;1.65;85.67;99162.65;1722105;81;21294;-57
2022/03/03 06:45:39;;;;;;;5.47;4.13;;;;;;;1.65;85.54;99163.52;1719142;81;21046;-56
2022/03/03 06:48:05;;;;;;;9.47;7.20;;;;;;;1.69;85.56;99163.02;1724202;81;21974;-56
2022/03/03 06:50:37;;;;;;;11.80;8.30;;;;;;;1.72;85.41;99161.60;1722638;81;20959;-57
2022/03/03 06:53:04;;;;;;;14.50;11.50;;;;;;;1.70;85.31;99163.44;1723096;81;21031;-57
2022/03/03 06:55:31;;;;;;;13.83;11.30;;;;;;;1.67;85.29;99158.19;1722258;81;21043;-57
2022/03/03 06:57:58;;;;;;;11.43;8.93;;;;;;;1.68;85.27;99159.94;1721399;81;21417;-58
2022/03/03 07:00:29;;;;;;;14.53;10.83;;;;;;;1.66;85.11;99167.92;1721236;81;21126;-58
2022/03/03 07:02:56;;;;;;;12.30;8.13;;;;;;;1.62;85.04;99165.36;1724114;81;21448;-57
2022/03/03 07:05:22;;;;;;;9.43;7.33;;;;;;;1.62;85.21;99164.03;1718728;81;21038;-56
2022/03/03 07:07:52;;;;;;;6.70;5.97;;;;;;;1.63;85.06;99163.13;1722182;81;21459;-57
2022/03/03 07:10:23;;;;;;;7.30;6.07;;;;;;;1.63;85.00;99167.98;1720984;81;21082;-57
2022/03/03 07:12:47;;;;;;;9.53;7.10;;;;;;;1.65;84.98;99167.50;1719167;81;21123;-57
2022/03/03 07:15:14;;;;;;;12.10;7.23;;;;;;;1.67;84.97;99168.80;1720101;81;21041;-57
2022/03/03 07:17:51;;;;;;;8.10;6.27;;;;;;;1.64;84.76;99163.09;1721195;81;21026;-57
2022/03/03 07:20:35;;;;;;;6.13;4.57;;;;;;;1.61;84.85;99168.95;1724370;81;20939;-57
2022/03/03 07:23:06;;;;;;;4.22;2.87;;;;;;;1.60;84.87;99169.39;1722263;81;20996;-57
2022/03/03 07:25:41;;;;;;;4.10;3.30;;;;;;;1.63;84.86;99168.44;1703706;81;22180;-59
2022/03/03 07:28:09;;;;;;;3.50;2.35;;;;;;;1.64;84.85;99171.06;1723505;81;24047;-57
2022/03/03 07:30:42;;;;;;;4.10;1.93;;;;;;;1.67;84.88;99164.38;1725875;81;20895;-58
2022/03/03 07:33:15;;;;;;;2.10;1.27;;;;;;;1.69;84.60;99167.00;1723778;81;21021;-58
2022/03/03 07:35:43;;;;;;;2.80;1.87;;;;;;;1.69;84.63;99165.22;1724973;81;20932;-57
2022/03/03 07:38:24;;;;;;;3.17;2.27;;;;;;;1.72;84.61;99161.16;1720419;81;21090;-58
2022/03/03 07:40:48;;;;;;;2.10;1.73;;;;;;;1.76;84.49;99164.63;1722393;81;21145;-58
2022/03/03 07:43:16;;;;;;;3.40;2.17;;;;;;;1.74;84.27;99150.51;1722813;81;20959;-59
2022/03/03 07:45:43;;;;;;;3.93;2.47;;;;;;;1.72;84.28;99154.97;1721169;81;20907;-58
2022/03/03 07:48:12;;;;;;;2.83;2.07;;;;;;;1.67;84.15;99152.88;1719973;81;21331;-57
2022/03/03 07:50:42;;;;;;;2.40;1.60;;;;;;;1.66;84.24;99155.11;1680644;83;21103;-56
2022/03/03 07:53:10;;;;;;;2.20;2.00;;;;;;;1.66;84.33;99151.13;1723830;81;21348;-58
2022/03/03 07:55:47;;;;;;;2.57;1.67;;;;;;;1.68;84.38;99151.53;1726309;80;20907;-58
2022/03/03 07:58:20;;;;;;;2.77;1.80;;;;;;;1.69;84.13;99148.42;1722012;81;21086;-56
2022/03/03 08:00:53;;;;;;;2.40;1.53;;;;;;;1.71;84.21;99152.77;1719205;81;21303;-58
2022/03/03 08:03:21;;;;;;;3.13;2.50;;;;;;;1.74;84.25;99154.48;1724510;80;21053;-58
2022/03/03 08:05:54;;;;;;;5.00;2.80;;;;;;;1.78;84.32;99156.19;1723881;81;20960;-58
2022/03/03 08:08:29;;;;;;;5.03;3.08;;;;;;;1.79;83.95;99155.25;1723558;82;20859;-58
2022/03/03 08:11:01;;;;;;;3.20;2.08;;;;;;;1.75;83.95;99151.80;1727858;81;21062;-59
2022/03/03 08:13:28;;;;;;;3.03;1.70;;;;;;;1.76;83.96;99151.36;1721178;81;21558;-58
2022/03/03 08:15:55;;;;;;;1.67;1.23;;;;;;;1.74;83.75;99146.53;1725161;82;21706;-58
2022/03/03 08:18:22;;;;;;;1.20;1.10;;;;;;;1.74;83.90;99149.18;1723578;81;21104;-58
2022/03/03 08:20:48;;;;;;;1.47;1.10;;;;;;;1.75;83.79;99146.95;1701609;82;21082;-58
2022/03/03 08:23:15;;;;;;;1.57;1.10;;;;;;;1.76;83.69;99148.70;1676753;82;21588;-59
2022/03/03 08:25:42;;;;;;;1.30;0.87;;;;;;;1.79;83.60;99146.83;1727251;82;21054;-58
2022/03/03 08:28:09;;;;;;;1.53;1.20;;;;;;;1.82;83.53;99148.10;1725961;81;21098;-60
2022/03/03 08:30:36;;;;;;;1.40;1.20;;;;;;;1.82;83.37;99145.45;1725730;81;21232;-57
2022/03/03 08:33:20;;;;;;;1.47;1.37;;;;;;;1.84;83.34;99141.44;1725058;82;21042;-58
2022/03/03 08:35:56;;;;;;;1.90;1.23;;;;;;;1.85;83.43;99144.52;1727506;82;21387;-58
2022/03/03 08:38:37;;;;;;;1.60;1.00;;;;;;;1.85;83.28;99144.06;1727703;81;21066;-57
2022/03/03 08:41:05;;;;;;;1.63;1.00;;;;;;;1.84;83.12;99144.97;1725402;81;21466;-57
2022/03/03 08:43:33;;;;;;;1.33;1.20;;;;;;;1.85;83.22;99144.06;1726787;82;21043;-57
2022/03/03 08:46:02;;;;;;;4.00;1.20;;;;;;;1.87;83.15;99144.03;1727284;81;21074;-57
2022/03/03 08:48:31;;;;;;;2.13;1.27;;;;;;;1.90;83.31;99139.96;1724388;81;21044;-58
2022/03/03 08:51:02;;;;;;;1.87;1.30;;;;;;;1.94;83.13;99144.76;1724458;82;21038;-57
2022/03/03 08:53:29;;;;;;;2.87;2.00;;;;;;;1.93;83.00;99132.39;1725084;81;21488;-57
2022/03/03 08:55:58;;;;;;;2.27;1.70;;;;;;;1.90;82.84;99135.53;1727534;81;21201;-56
2022/03/03 08:58:25;;;;;;;2.37;1.33;;;;;;;1.87;82.91;99134.75;1653549;85;21121;-56
2022/03/03 09:00:53;;;;;;;3.60;2.87;;;;;;;1.88;83.03;99136.46;1727277;82;21113;-57
2022/03/03 09:03:22;;;;;;;3.20;1.90;;;;;;;1.90;83.10;99136.86;1730736;81;20999;-57
2022/03/03 09:05:49;;;;;;;1.53;1.30;;;;;;;1.92;82.97;99136.83;1721840;81;21858;-57
2022/03/03 09:08:16;;;;;;;2.63;1.80;;;;;;;1.93;82.82;99141.69;1723969;81;21117;-57
2022/03/03 09:10:43;;;;;;;2.70;1.53;;;;;;;1.92;82.64;99144.78;1727028;81;21094;-58
2022/03/03 09:13:10;;;;;;;2.27;1.30;;;;;;;1.92;82.68;99138.16;1723776;81;21089;-57
2022/03/03 09:15:38;;;;;;;1.83;1.43;;;;;;;1.95;82.66;99142.08;1729063;81;21556;-56
2022/03/03 09:18:05;;;;;;;1.57;1.30;;;;;;;1.97;82.59;99139.36;1725667;82;21125;-56
2022/03/03 09:20:33;;;;;;;2.67;2.00;;;;;;;1.97;82.49;99141.56;1724890;80;21561;-58
2022/03/03 09:23:00;;;;;;;2.17;1.60;;;;;;;1.96;82.23;99140.30;1744042;80;21054;-57
2022/03/03 09:25:27;;;;;;;2.23;1.20;;;;;;;1.92;81.95;99142.13;1744411;80;21062;-58
2022/03/03 09:27:54;;;;;;;3.00;1.13;;;;;;;1.90;82.05;99139.51;1740023;80;21660;-60
2022/03/03 09:30:21;;;;;;;1.97;1.30;;;;;;;1.90;82.07;99143.95;1741119;80;21912;-56
2022/03/03 09:32:48;;;;;;;1.47;1.10;;;;;;;1.94;82.06;99142.11;1742728;80;21082;-60
2022/03/03 09:35:15;;;;;;;1.70;1.30;;;;;;;1.96;82.02;99138.48;1741708;80;21097;-57
2022/03/03 09:37:41;;;;;;;1.60;1.33;;;;;;;1.99;82.05;99145.06;1742207;80;21887;-58
2022/03/03 09:40:09;;;;;;;1.53;1.10;;;;;;;2.02;82.09;99142.80;1739819;80;21053;-58
2022/03/03 09:42:35;;;;;;;2.60;1.63;;;;;;;2.05;82.12;99138.72;1739754;80;21460;-58
2022/03/03 09:45:04;;;;;;;3.03;2.20;;;;;;;2.06;82.08;99140.02;1741867;81;21082;-59
2022/03/03 09:47:37;;;;;;;2.00;1.27;;;;;;;2.07;82.13;99137.78;1743776;80;21323;-58
2022/03/03 09:50:05;;;;;;;2.87;1.63;;;;;;;2.07;82.09;99131.60;1738125;80;21050;-56
2022/03/03 09:52:32;;;;;;;1.90;1.60;;;;;;;2.08;82.01;99133.34;1743160;80;21506;-56
2022/03/03 09:55:01;;;;;;;2.33;1.73;;;;;;;2.06;82.05;99127.20;1743570;80;21252;-57
2022/03/03 09:57:28;;;;;;;2.30;1.60;;;;;;;2.09;82.27;99128.47;1743628;80;21060;-57
2022/03/03 09:59:56;;;;;;;2.97;2.67;;;;;;;2.12;82.22;99125.75;1739914;80;21081;-57
2022/03/03 10:02:23;;;;;;;8.20;4.43;;;;;;;2.14;82.24;99122.13;1742327;80;21037;-57
2022/03/03 10:04:56;;;;;;;2.97;2.67;;;;;;;2.17;82.20;99122.06;1742788;80;21049;-57
2022/03/03 10:07:23;;;;;;;3.53;2.80;;;;;;;2.19;82.31;99111.41;1741047;80;21034;-57
2022/03/03 10:10:00;;;;;;;3.53;2.43;;;;;;;2.20;82.25;99113.16;1746251;80;21005;-56
2022/03/03 10:12:28;;;;;;;4.73;2.53;;;;;;;2.18;82.18;99113.19;1697214;81;21559;-58
2022/03/03 10:14:58;;;;;;;3.83;2.33;;;;;;;2.15;82.16;99113.25;1688693;81;21466;-56
2022/03/03 10:17:36;;;;;;;5.03;3.13;;;;;;;2.12;82.04;99110.69;1742703;80;21062;-56
2022/03/03 10:20:04;;;;;;;3.90;2.20;;;;;;;2.09;82.06;99102.79;1742503;80;21108;-59
2022/03/03 10:22:46;;;;;;;3.83;2.83;;;;;;;2.09;82.16;99113.41;1743165;80;21018;-57
2022/03/03 10:25:29;;;;;;;5.97;2.23;;;;;;;2.08;82.21;99109.01;1678794;83;21089;-58
2022/03/03 10:27:55;;;;;;;4.73;2.77;;;;;;;2.09;82.28;99108.09;1743772;81;21529;-57
2022/03/03 10:30:22;;;;;;;3.47;2.47;;;;;;;2.12;82.28;99108.03;1740478;80;21097;-57
2022/03/03 10:35:17;;;;;;;2.33;2.00;;;;;;;2.21;82.38;99106.45;1869865;75;26498;-59
2022/03/03 10:37:45;;;;;;;3.60;1.80;;;;;;;2.18;82.26;99103.02;1845031;77;21337;-60
2022/03/03 10:40:16;;;;;;;2.57;1.67;;;;;;;2.19;82.27;99103.44;1849740;77;21740;-58
2022/03/03 10:42:46;;;;;;;2.30;1.80;;;;;;;2.18;82.16;99108.33;1846613;77;20914;-58
2022/03/03 10:45:17;;;;;;;3.13;1.40;;;;;;;2.19;82.10;99100.33;1842955;77;21396;-58
2022/03/03 10:47:45;;;;;;;3.30;1.53;;;;;;;2.19;82.17;99096.34;1841784;76;21206;-59
2022/03/03 10:50:12;;;;;;;2.57;1.60;;;;;;;2.22;82.14;99094.92;1841170;77;20898;-58
2022/03/03 10:52:40;;;;;;;5.33;4.03;;;;;;;2.27;82.19;99098.36;1844482;77;21078;-59
2022/03/03 10:55:13;;;;;;;6.10;4.37;;;;;;;2.33;82.07;99093.78;1837908;76;20930;-57
2022/03/03 10:57:57;;;;;;;3.50;2.83;;;;;;;2.38;82.00;99087.92;1838769;77;22001;-57
2022/03/03 11:00:26;;;;;;;2.23;1.80;;;;;;;2.41;82.08;99088.69;1835340;77;21452;-57
2022/03/03 11:02:59;;;;;;;2.23;2.03;;;;;;;2.46;81.90;99091.25;1836547;77;21440;-57
2022/03/03 11:05:28;;;;;;;2.77;2.30;;;;;;;2.50;81.97;99087.58;1832452;77;21375;-57
2022/03/03 11:07:56;;;;;;;2.40;1.80;;;;;;;2.53;81.92;99083.07;1836193;77;21440;-57
2022/03/03 11:10:25;;;;;;;1.80;1.70;;;;;;;2.55;81.56;99084.37;1837371;77;21064;-56
2022/03/03 11:12:52;;;;;;;2.63;1.60;;;;;;;2.55;81.48;99082.55;1840530;77;21043;-58
2022/03/03 11:15:22;;;;;;;2.20;1.73;;;;;;;2.57;81.26;99082.06;1833345;77;20993;-57
2022/03/03 11:17:50;;;;;;;1.77;1.50;;;;;;;2.59;81.22;99079.37;1841277;76;21112;-58
2022/03/03 11:20:18;;;;;;;1.77;1.53;;;;;;;2.62;80.95;99083.28;1835963;77;21333;-58
2022/03/03 11:22:45;;;;;;;2.97;1.77;;;;;;;2.65;80.65;99077.41;1834660;76;21103;-58
2022/03/03 11:25:18;;;;;;;1.73;1.60;;;;;;;2.66;80.52;99073.84;1834262;77;21304;-58
2022/03/03 11:27:45;;;;;;;2.10;1.73;;;;;;;2.67;80.08;99070.73;1833773;77;21017;-58
2022/03/03 11:30:28;;;;;;;2.57;2.20;;;;;;;2.64;79.98;99070.80;1829935;77;21810;-58
2022/03/03 11:33:28;;;;;;;2.37;1.77;;;;;;;2.63;80.13;99063.78;1834254;77;21242;-58
2022/03/03 11:35:58;;;;;;;4.77;2.00;;;;;;;2.63;80.25;99063.78;1837134;77;21057;-57
2022/03/03 11:38:47;;;;;;;3.07;1.67;;;;;;;2.63;79.90;99065.10;1837821;77;21427;-58
2022/03/03 11:41:13;;;;;;;2.37;1.73;;;;;;;2.61;79.60;99063.81;1840150;77;21037;-58
2022/03/03 11:44:00;;;;;;;2.40;1.50;;;;;;;2.60;79.76;99060.73;1840244;77;21121;-58
2022/03/03 11:46:45;;;;;;;1.97;1.77;;;;;;;2.63;79.65;99059.79;1835576;77;21304;-57
2022/03/03 11:49:16;;;;;;;1.73;1.63;;;;;;;2.64;79.37;99058.39;1834340;77;21009;-58